Terminal Aerodrome Forecast
Issued by NWS

Home | Current Version | Previous Version | Text Only | Print | Product List | Glossary On
Versions: 1 2 3 4 5 6 7 8 9 10 11 12 13 14 15
517
FTUS42 TJSJ 300527
TAFJSJ
TAF
TJSJ 300527Z 3006/3106 12003KT P6SM VCSH FEW024 SCT030
     FM301400 07014G21KT P6SM FEW020 SCT035
     FM301700 06016G26KT P6SM VCSH SCT030 SCT050=

USA.gov is the U.S. government's official web portal to all federal, state and local government web resources and services.